Time;durP1;ratioP1;P1;durP2;ratioP2;P2;SDS_P1;SDS_P2;PMS_P1;PMS_P2;Temp;Humidity;BMP_temperature;BMP_pressure;BME280_temperature;BME280_humidity;BME280_pressure;Samples;Min_cycle;Max_cycle;Signal;HPM_P1;HPM_P2
2024/03/05 00:00:10;;;;;;;;;60.50;47.50;;;;;-143.90;100.00;74944.81;4963236;28;104636;-72
2024/03/05 00:02:41;;;;;;;;;64.00;49.50;;;;;-143.90;100.00;74948.94;4953572;28;102022;-71
2024/03/05 00:05:12;;;;;;;;;65.75;49.25;;;;;-143.90;100.00;74973.75;4961474;28;102543;-72
2024/03/05 00:07:40;;;;;;;;;51.00;40.50;;;;;-143.90;100.00;74965.50;4961377;28;102503;-72
2024/03/05 00:10:07;;;;;;;;;58.75;41.50;;;;;-143.90;100.00;74979.97;4962188;28;104211;-72
2024/03/05 00:12:34;;;;;;;;;57.50;44.75;;;;;-143.90;100.00;74994.44;4953566;28;104341;-72
2024/03/05 00:15:01;;;;;;;;;47.25;39.00;;;;;-143.90;100.00;74996.50;4963736;28;102304;-71
2024/03/05 00:17:28;;;;;;;;;55.25;40.25;;;;;-143.90;100.00;75008.91;4955919;28;102678;-72
2024/03/05 00:19:55;;;;;;;;;52.00;38.75;;;;;-143.90;100.00;75023.38;4962489;28;104361;-72
2024/03/05 00:22:22;;;;;;;;;53.25;38.50;;;;;-143.90;100.00;75015.09;4957654;28;102385;-72
2024/03/05 00:24:48;;;;;;;;;53.25;38.75;;;;;-143.90;100.00;75035.78;4959034;28;102422;-72
2024/03/05 00:27:15;;;;;;;;;55.00;41.00;;;;;-143.90;100.00;75054.38;4964153;28;102373;-72
2024/03/05 00:29:42;;;;;;;;;56.25;41.50;;;;;-143.90;100.00;75054.38;4962468;28;103995;-72
2024/03/05 00:32:08;;;;;;;;;50.75;39.75;;;;;-143.90;100.00;75060.59;4959618;28;103115;-72
2024/03/05 00:34:35;;;;;;;;;57.00;40.25;;;;;-143.90;100.00;75068.84;4950691;28;102523;-72
2024/03/05 00:37:02;;;;;;;;;49.75;37.75;;;;;-143.90;100.00;75072.97;4965517;28;102563;-72
2024/03/05 00:39:28;;;;;;;;;59.00;44.50;;;;;-143.90;100.00;75093.66;4961144;28;104091;-71
2024/03/05 00:41:55;;;;;;;;;56.50;41.25;;;;;-143.90;100.00;75116.41;4962682;28;102959;-71
2024/03/05 00:44:22;;;;;;;;;58.50;43.50;;;;;-143.90;100.00;75130.88;4960898;28;102005;-72
2024/03/05 00:46:48;;;;;;;;;57.00;42.75;;;;;-143.90;100.00;75122.59;4961562;28;102709;-71
2024/03/05 00:49:15;;;;;;;;;46.00;37.25;;;;;-143.90;100.00;75118.47;4965642;28;104026;-72
2024/03/05 00:51:42;;;;;;;;;47.75;38.50;;;;;-143.90;100.00;75132.94;4965559;28;102214;-72
2024/03/05 00:54:10;;;;;;;;;57.00;44.25;;;;;-143.90;100.00;75172.22;4965532;28;102365;-71
2024/03/05 00:56:37;;;;;;;;;53.25;41.75;;;;;-143.90;100.00;75194.97;4954770;28;102130;-72
2024/03/05 00:59:04;;;;;;;;;51.25;39.75;;;;;-143.90;100.00;75190.81;4963643;28;102622;-71
2024/03/05 01:01:30;;;;;;;;;51.75;36.75;;;;;-143.90;100.00;75207.38;4965194;28;102469;-72
2024/03/05 01:03:58;;;;;;;;;49.00;40.25;;;;;-143.90;100.00;75213.56;4962213;28;102412;-71
2024/03/05 01:06:24;;;;;;;;;44.75;38.00;;;;;-143.90;100.00;75213.56;4958005;28;102536;-72
2024/03/05 01:08:51;;;;;;;;;48.50;37.25;;;;;-143.90;100.00;75213.56;4963446;28;105141;-72
2024/03/05 01:11:18;;;;;;;;;47.25;33.50;;;;;-143.90;100.00;75209.44;4963074;28;102691;-71
2024/03/05 01:13:44;;;;;;;;;53.00;40.25;;;;;-143.90;100.00;75203.22;4964607;28;102052;-71
2024/03/05 01:16:11;;;;;;;;;54.50;38.50;;;;;-143.90;100.00;75213.56;4957937;28;101974;-72
2024/03/05 01:18:38;;;;;;;;;48.75;35.25;;;;;-143.90;100.00;75211.50;4954890;28;104101;-71
2024/03/05 01:21:07;;;;;;;;;49.25;38.25;;;;;-143.90;100.00;75213.56;4965329;28;103756;-71
2024/03/05 01:23:34;;;;;;;;;37.50;29.75;;;;;-143.90;100.00;75219.78;4965028;28;102284;-72
2024/03/05 01:26:00;;;;;;;;;12.00;5.00;;;;;-143.90;100.00;75225.97;4969477;28;102487;-72
2024/03/05 01:28:31;;;;;;;;;52.00;41.00;;;;;-143.90;100.00;75230.09;4954286;28;104132;-72
2024/03/05 01:30:59;;;;;;;;;37.00;33.00;;;;;-143.90;100.00;75225.97;4960616;28;104418;-71
2024/03/05 01:33:26;;;;;;;;;47.75;36.00;;;;;-143.90;100.00;75225.97;4958249;27;102281;-72
2024/03/05 01:35:53;;;;;;;;;48.00;34.50;;;;;-143.90;100.00;75223.91;4960119;28;102187;-71
2024/03/05 01:38:21;;;;;;;;;36.50;33.75;;;;;-143.90;100.00;75223.91;4960206;28;104108;-72
2024/03/05 01:40:48;;;;;;;;;38.50;27.00;;;;;-143.90;100.00;75225.97;4956992;27;102260;-71
2024/03/05 01:43:14;;;;;;;;;41.50;36.00;;;;;-143.90;100.00;75232.19;4963279;28;102293;-72
2024/03/05 01:45:45;;;;;;;;;31.75;24.50;;;;;-143.90;100.00;75215.63;4965113;28;101992;-71
2024/03/05 01:48:14;;;;;;;;;37.75;31.50;;;;;-143.90;100.00;75217.69;4960659;28;104292;-72
2024/03/05 01:50:42;;;;;;;;;35.50;29.00;;;;;-143.90;100.00;75215.63;4954477;28;102052;-71
2024/03/05 01:53:10;;;;;;;;;34.00;29.75;;;;;-143.90;100.00;75225.97;4953093;28;102513;-72
2024/03/05 01:55:38;;;;;;;;;28.75;26.25;;;;;-143.90;100.00;75219.78;4965757;28;101935;-72
2024/03/05 01:58:07;;;;;;;;;31.25;25.00;;;;;-143.90;100.00;75213.56;4962333;28;104125;-71
2024/03/05 02:00:36;;;;;;;;;20.25;16.25;;;;;-143.90;100.00;75213.56;4949720;28;107511;-72
2024/03/05 02:03:04;;;;;;;;;28.00;25.00;;;;;-143.90;100.00;75217.69;4964516;28;102017;-72
2024/03/05 02:05:32;;;;;;;;;30.00;23.50;;;;;-143.90;100.00;75213.56;4964426;28;103025;-72
2024/03/05 02:08:00;;;;;;;;;28.00;23.75;;;;;-143.90;100.00;75219.78;4960033;28;104797;-71
2024/03/05 02:10:27;;;;;;;;;41.75;29.75;;;;;-143.90;100.00;75221.84;4954371;28;102114;-71
2024/03/05 02:12:54;;;;;;;;;29.25;26.00;;;;;-143.90;100.00;75221.84;4963064;28;102507;-71
2024/03/05 02:15:21;;;;;;;;;33.50;26.50;;;;;-143.90;100.00;75238.38;4964813;28;101841;-72
2024/03/05 02:17:48;;;;;;;;;53.75;36.25;;;;;-143.90;100.00;75244.59;4963141;28;103813;-71
2024/03/05 02:20:15;;;;;;;;;57.00;40.00;;;;;-143.90;100.00;75259.06;4961696;28;102235;-71
2024/03/05 02:22:42;;;;;;;;;48.25;40.00;;;;;-143.90;100.00;75250.78;4951648;28;103834;-71
2024/03/05 02:25:10;;;;;;;;;39.00;31.50;;;;;-143.90;100.00;75246.66;4964735;28;102605;-71
2024/03/05 02:27:37;;;;;;;;;52.75;36.00;;;;;-143.90;100.00;75259.06;4961041;28;104066;-72
2024/03/05 02:30:13;;;;;;;;;41.75;36.00;;;;;-143.90;100.00;75254.91;4966322;28;102474;-71
2024/03/05 02:32:41;;;;;;;;;39.25;32.75;;;;;-143.90;100.00;75254.91;4950037;28;106270;-71
2024/03/05 02:35:09;;;;;;;;;43.00;36.25;;;;;-143.90;100.00;75238.38;4962473;28;102256;-72
2024/03/05 02:37:39;;;;;;;;;40.75;31.25;;;;;-143.90;100.00;75242.50;4950563;28;104296;-71
2024/03/05 02:40:10;;;;;;;;;26.50;24.00;;;;;-143.90;100.00;75242.50;4961023;28;101914;-71
2024/03/05 02:42:37;;;;;;;;;34.25;26.25;;;;;-143.90;100.00;75244.59;4948079;28;102595;-72
2024/03/05 02:45:07;;;;;;;;;28.75;23.75;;;;;-143.90;100.00;75246.66;4966124;28;102703;-72
2024/03/05 02:47:41;;;;;;;;;28.50;24.00;;;;;-143.90;100.00;75246.66;4962931;28;108946;-72
2024/03/05 02:50:11;;;;;;;;;23.50;18.75;;;;;-143.90;100.00;75240.44;4960057;28;102443;-72
2024/03/05 02:52:38;;;;;;;;;18.50;15.50;;;;;-143.90;100.00;75238.38;4955003;28;102763;-73
2024/03/05 02:55:09;;;;;;;;;30.25;24.00;;;;;-143.90;100.00;75244.59;4965622;28;103507;-72
2024/03/05 02:57:41;;;;;;;;;36.25;31.75;;;;;-143.90;100.00;75254.91;4962179;28;103972;-72
2024/03/05 03:00:10;;;;;;;;;35.50;27.25;;;;;-143.90;100.00;75263.19;4964865;28;102227;-72
2024/03/05 03:02:37;;;;;;;;;32.25;28.50;;;;;-143.90;100.00;75271.47;4954972;28;102574;-72
2024/03/05 03:05:05;;;;;;;;;38.25;30.75;;;;;-143.90;100.00;75288.00;4966583;28;103298;-72
2024/03/05 03:07:32;;;;;;;;;39.00;34.75;;;;;-143.90;100.00;75279.72;4961001;28;108799;-72
2024/03/05 03:09:59;;;;;;;;;36.00;32.25;;;;;-143.90;100.00;75306.59;4964680;28;102339;-72
2024/03/05 03:12:26;;;;;;;;;33.50;30.50;;;;;-143.90;100.00;75296.25;4956395;28;102194;-72
2024/03/05 03:14:54;;;;;;;;;38.25;29.00;;;;;-143.90;100.00;75292.13;4965356;28;102133;-72
2024/03/05 03:17:20;;;;;;;;;35.00;28.75;;;;;-143.90;100.00;75285.94;4962630;28;103946;-71
2024/03/05 03:19:47;;;;;;;;;34.00;29.25;;;;;-143.90;100.00;75290.06;4960300;28;102309;-71
2024/03/05 03:22:14;;;;;;;;;27.50;25.00;;;;;-143.90;100.00;75300.41;4957874;28;102536;-71
2024/03/05 03:24:41;;;;;;;;;42.25;29.75;;;;;-143.90;100.00;75319.00;4949572;28;102486;-72
2024/03/05 03:27:08;;;;;;;;;29.75;24.25;;;;;-143.90;100.00;75331.41;4958307;28;104087;-72
2024/03/05 03:29:35;;;;;;;;;30.25;25.75;;;;;-143.90;100.00;75327.28;4962520;28;101991;-72
2024/03/05 03:32:04;;;;;;;;;13.00;10.00;;;;;-143.90;100.00;75333.47;4967243;28;104931;-72
2024/03/05 03:34:30;;;;;;;;;27.50;23.75;;;;;-143.90;100.00;75354.16;4951750;28;103739;-72
2024/03/05 03:36:57;;;;;;;;;30.75;25.75;;;;;-143.90;100.00;75350.03;4960740;28;104039;-72
2024/03/05 03:39:24;;;;;;;;;29.75;23.25;;;;;-143.90;100.00;75352.09;4962363;28;102142;-72
2024/03/05 03:41:54;;;;;;;;;31.75;27.00;;;;;-143.90;100.00;75362.44;4962323;28;102409;-72
2024/03/05 03:44:22;;;;;;;;;29.75;22.75;;;;;-143.90;100.00;75354.16;4963047;28;102431;-72
2024/03/05 03:46:52;;;;;;;;;23.50;20.50;;;;;-143.90;100.00;75358.28;4956020;28;104210;-72
2024/03/05 03:49:24;;;;;;;;;25.25;23.50;;;;;-143.90;100.00;75362.44;4961691;28;102098;-72
2024/03/05 03:51:53;;;;;;;;;26.25;22.00;;;;;-143.90;100.00;75378.97;4959365;28;104101;-72
2024/03/05 03:54:24;;;;;;;;;23.75;23.00;;;;;-143.90;100.00;75372.75;4961872;28;102562;-71
2024/03/05 03:56:51;;;;;;;;;24.00;22.75;;;;;-143.90;100.00;75360.34;4957469;28;104197;-71
2024/03/05 03:59:20;;;;;;;;;17.50;16.50;;;;;-143.90;100.00;75343.81;4963890;28;102280;-71
2024/03/05 04:01:48;;;;;;;;;21.00;17.00;;;;;-143.90;100.00;75341.75;4961291;28;102652;-71
2024/03/05 04:04:14;;;;;;;;;17.75;17.00;;;;;-143.90;100.00;75347.94;4962242;28;102455;-71
2024/03/05 04:06:42;;;;;;;;;15.00;13.50;;;;;-143.90;100.00;75341.75;4952263;28;104513;-71
2024/03/05 04:09:09;;;;;;;;;15.75;12.75;;;;;-143.90;100.00;75337.63;4959430;27;102261;-71
2024/03/05 04:11:38;;;;;;;;;15.00;13.75;;;;;-143.90;100.00;75341.75;4964820;28;102512;-71
2024/03/05 04:14:05;;;;;;;;;18.75;16.75;;;;;-143.90;100.00;75347.94;4961786;28;102542;-72
2024/03/05 04:16:32;;;;;;;;;29.25;26.75;;;;;-143.90;100.00;75360.34;4953788;28;108928;-71
2024/03/05 04:18:59;;;;;;;;;28.25;21.00;;;;;-143.90;100.00;75362.44;4965800;28;104796;-72
2024/03/05 04:21:26;;;;;;;;;28.25;25.00;;;;;-143.90;100.00;75362.44;4956323;28;102075;-72
2024/03/05 04:23:53;;;;;;;;;30.50;27.50;;;;;-143.90;100.00;75366.56;4966859;28;102338;-72
2024/03/05 04:26:27;;;;;;;;;29.75;26.00;;;;;-143.90;100.00;75370.69;4960684;28;104011;-71
2024/03/05 04:29:00;;;;;;;;;33.50;28.50;;;;;-143.90;100.00;75360.34;4963828;28;102047;-71
2024/03/05 04:31:34;;;;;;;;;43.25;33.75;;;;;-143.90;100.00;75370.69;4965058;28;102385;-71
2024/03/05 04:34:13;;;;;;;;;26.75;23.75;;;;;-143.90;100.00;75381.03;4966285;28;101987;-71
2024/03/05 04:36:39;;;;;;;;;36.50;25.50;;;;;-143.90;100.00;75383.09;4955895;28;103984;-71
2024/03/05 04:39:06;;;;;;;;;31.75;28.50;;;;;-143.90;100.00;75395.50;4963326;28;102486;-71
2024/03/05 04:41:33;;;;;;;;;33.00;28.50;;;;;-143.90;100.00;75391.38;4967734;28;101954;-72
2024/03/05 04:44:00;;;;;;;;;29.00;25.75;;;;;-143.90;100.00;75395.50;4966274;28;102051;-72
2024/03/05 04:46:27;;;;;;;;;37.75;33.75;;;;;-143.90;100.00;75405.84;4961114;28;104156;-72
2024/03/05 04:48:54;;;;;;;;;42.50;32.00;;;;;-143.90;100.00;75395.50;4955299;28;102197;-72
2024/03/05 04:51:21;;;;;;;;;29.00;24.00;;;;;-143.90;100.00;75395.50;4964103;28;102439;-72
2024/03/05 04:53:48;;;;;;;;;32.75;21.50;;;;;-143.90;100.00;75409.97;4967621;28;102726;-72
2024/03/05 04:56:14;;;;;;;;;59.50;42.00;;;;;-143.90;100.00;75416.19;4961776;28;103989;-72
2024/03/05 04:58:41;;;;;;;;;62.00;42.75;;;;;-143.90;100.00;75418.25;4956381;28;103573;-72
2024/03/05 05:01:08;;;;;;;;;49.50;40.00;;;;;-143.90;100.00;75416.19;4964928;28;102284;-72
2024/03/05 05:03:34;;;;;;;;;53.50;36.75;;;;;-143.90;100.00;75416.19;4968434;28;102969;-71
2024/03/05 05:06:01;;;;;;;;;59.50;39.75;;;;;-143.90;100.00;75416.19;4963656;28;108721;-71
2024/03/05 05:08:28;;;;;;;;;43.50;35.00;;;;;-143.90;100.00;75412.03;4962628;28;102381;-71
2024/03/05 05:10:55;;;;;;;;;38.50;32.75;;;;;-143.90;100.00;75416.19;4960261;28;101974;-72
2024/03/05 05:13:22;;;;;;;;;43.75;36.50;;;;;-143.90;100.00;75416.19;4966382;28;102444;-72
2024/03/05 05:15:49;;;;;;;;;28.00;26.50;;;;;-143.90;100.00;75412.03;4964056;28;104057;-72
2024/03/05 05:18:15;;;;;;;;;46.25;38.75;;;;;-143.90;100.00;75416.19;4965345;28;102293;-71
2024/03/05 05:20:43;;;;;;;;;48.75;38.50;;;;;-143.90;100.00;75428.59;4955501;28;102569;-72
2024/03/05 05:23:09;;;;;;;;;50.50;37.00;;;;;-143.90;100.00;75432.72;4962260;28;101943;-72
2024/03/05 05:25:37;;;;;;;;;51.25;36.50;;;;;-143.90;100.00;75436.84;4963948;28;105189;-72
2024/03/05 05:28:05;;;;;;;;;49.75;35.50;;;;;-143.90;100.00;75436.84;4958332;28;102146;-72
2024/03/05 05:30:32;;;;;;;;;49.75;37.25;;;;;-143.90;100.00;75432.72;4949129;28;102413;-72
2024/03/05 05:32:59;;;;;;;;;36.75;29.50;;;;;-143.90;100.00;75432.72;4962342;28;102448;-73
2024/03/05 05:35:26;;;;;;;;;39.00;29.75;;;;;-143.90;100.00;75426.50;4951369;28;104081;-72
2024/03/05 05:37:52;;;;;;;;;51.25;40.00;;;;;-143.90;100.00;75438.94;4958286;28;102343;-73
2024/03/05 05:40:19;;;;;;;;;47.75;37.00;;;;;-143.90;100.00;75441.00;4963439;28;102242;-72
2024/03/05 05:42:49;;;;;;;;;45.50;36.50;;;;;-143.90;100.00;75447.19;4956765;28;102630;-72
2024/03/05 05:45:15;;;;;;;;;41.75;38.25;;;;;-143.90;100.00;75453.41;4956917;28;104101;-72
2024/03/05 05:47:51;;;;;;;;;55.50;40.25;;;;;-143.90;100.00;75457.53;4960851;28;102126;-73
2024/03/05 05:50:22;;;;;;;;;28.00;25.75;;;;;-143.90;100.00;75445.13;4961070;28;102268;-72
2024/03/05 05:52:54;;;;;;;;;30.25;25.50;;;;;-143.90;100.00;75436.84;4953939;28;102990;-72
2024/03/05 05:55:24;;;;;;;;;37.25;28.00;;;;;-143.90;100.00;75449.25;4964636;27;105026;-72
2024/03/05 05:57:53;;;;;;;;;32.00;29.75;;;;;-143.90;100.00;75457.53;4965632;28;102340;-73
2024/03/05 06:00:47;;;;;;;;;41.50;30.00;;;;;-143.90;100.00;75449.25;4964286;28;102036;-73
2024/03/05 06:03:12;;;;;;;;;44.50;37.25;;;;;-143.90;100.00;75465.81;4962897;28;102013;-72
2024/03/05 06:05:42;;;;;;;;;41.00;33.00;;;;;-143.90;100.00;75461.66;4966434;28;105434;-72
2024/03/05 06:08:12;;;;;;;;;30.25;25.25;;;;;-143.90;100.00;75459.59;4965521;28;101925;-73
2024/03/05 06:10:41;;;;;;;;;39.75;32.25;;;;;-143.90;100.00;75465.81;4954589;28;102397;-73
2024/03/05 06:13:09;;;;;;;;;44.50;35.75;;;;;-143.90;100.00;75472.00;4965680;28;102205;-72
2024/03/05 06:15:38;;;;;;;;;38.25;30.25;;;;;-143.90;100.00;75461.66;4964017;28;104035;-73
2024/03/05 06:18:06;;;;;;;;;28.25;28.00;;;;;-143.90;100.00;75461.66;4960903;28;102365;-72
2024/03/05 06:20:33;;;;;;;;;35.75;28.50;;;;;-143.90;100.00;75461.66;4948253;28;102004;-72
2024/03/05 06:23:00;;;;;;;;;45.50;36.50;;;;;-143.90;100.00;75482.34;4959276;28;102483;-71
2024/03/05 06:25:27;;;;;;;;;50.00;38.50;;;;;-143.90;100.00;75486.47;4960333;28;103513;-72
2024/03/05 06:27:54;;;;;;;;;45.75;36.50;;;;;-143.90;100.00;75482.34;4965032;28;102154;-73
2024/03/05 06:30:22;;;;;;;;;37.50;31.75;;;;;-143.90;100.00;75490.63;4963464;28;102380;-74
2024/03/05 06:32:51;;;;;;;;;41.00;35.25;;;;;-143.90;100.00;75505.09;4955670;28;102494;-73
2024/03/05 06:35:22;;;;;;;;;38.50;35.75;;;;;-143.90;100.00;75500.94;4964401;28;104295;-73
2024/03/05 06:37:50;;;;;;;;;30.25;26.00;;;;;-143.90;100.00;75496.81;4964392;28;102268;-73
2024/03/05 06:40:19;;;;;;;;;37.75;29.25;;;;;-143.90;100.00;75515.41;4962903;28;102101;-73
2024/03/05 06:43:03;;;;;;;;;33.25;29.00;;;;;-143.90;100.00;75505.09;4953136;28;102401;-72
2024/03/05 06:45:33;;;;;;;;;32.50;22.75;;;;;-143.90;100.00;75490.63;4963647;28;103810;-72
2024/03/05 06:48:01;;;;;;;;;48.50;36.75;;;;;-143.90;100.00;75505.09;4948088;28;103791;-73
2024/03/05 06:50:37;;;;;;;;;29.00;25.00;;;;;-143.90;100.00;75503.03;4956072;28;101888;-72
2024/03/05 06:58:41;;;;;;;;;23.50;21.75;;;;;-143.90;100.00;75498.88;4947237;28;102853;-72
2024/03/05 07:01:08;;;;;;;;;36.75;30.75;;;;;-143.90;100.00;75521.63;4956467;28;102363;-71
2024/03/05 07:03:38;;;;;;;;;33.00;30.00;;;;;-143.90;100.00;75523.69;4966339;28;102483;-72
2024/03/05 07:06:07;;;;;;;;;42.00;33.50;;;;;-143.90;100.00;75534.03;4962672;28;108436;-72
2024/03/05 07:08:35;;;;;;;;;34.25;31.75;;;;;-143.90;100.00;75534.03;4954035;28;102367;-72
2024/03/05 07:11:05;;;;;;;;;43.25;33.00;;;;;-143.90;100.00;75531.97;4963068;28;106087;-72
2024/03/05 07:13:32;;;;;;;;;44.00;34.25;;;;;-143.90;100.00;75523.69;4964313;28;104503;-72
2024/03/05 07:16:03;;;;;;;;;26.75;25.25;;;;;-143.90;100.00;75509.22;4962243;28;104061;-72
2024/03/05 07:18:29;;;;;;;;;37.75;29.00;;;;;-143.90;100.00;75509.22;4958314;28;102307;-72
2024/03/05 07:20:56;;;;;;;;;29.75;24.25;;;;;-143.90;100.00;75511.28;4958691;28;103590;-72
2024/03/05 07:23:23;;;;;;;;;28.75;23.25;;;;;-143.90;100.00;75511.28;4963991;28;102286;-72
2024/03/05 07:25:50;;;;;;;;;40.50;32.00;;;;;-143.90;100.00;75519.56;4964144;28;104044;-72
2024/03/05 07:28:16;;;;;;;;;24.75;22.50;;;;;-143.90;100.00;75519.56;4962803;28;102419;-71
2024/03/05 07:30:43;;;;;;;;;33.50;28.00;;;;;-143.90;100.00;75517.50;4953767;28;102325;-72
2024/03/05 07:33:10;;;;;;;;;37.75;31.75;;;;;-143.90;100.00;75517.50;4964064;28;102775;-72
2024/03/05 07:35:37;;;;;;;;;41.25;35.50;;;;;-143.90;100.00;75517.50;4962322;28;103723;-72
2024/03/05 07:38:04;;;;;;;;;42.50;36.25;;;;;-143.90;100.00;75500.94;4962338;28;104696;-72
2024/03/05 07:40:30;;;;;;;;;33.75;30.25;;;;;-143.90;100.00;75505.09;4955835;28;102324;-72
2024/03/05 07:42:58;;;;;;;;;35.25;27.50;;;;;-143.90;100.00;75498.88;4959126;28;102444;-72
2024/03/05 07:45:25;;;;;;;;;36.00;28.00;;;;;-143.90;100.00;75503.03;4961979;28;104178;-72
2024/03/05 07:47:51;;;;;;;;;40.00;34.25;;;;;-143.90;100.00;75500.94;4960987;28;102939;-72
2024/03/05 07:50:18;;;;;;;;;53.00;39.25;;;;;-143.90;100.00;75515.41;4963939;28;102333;-72
2024/03/05 07:52:46;;;;;;;;;24.00;20.25;;;;;-143.90;100.00;75503.03;4959690;28;102043;-72
2024/03/05 07:55:18;;;;;;;;;47.00;37.00;;;;;-143.90;100.00;75503.03;4967529;28;104064;-72
2024/03/05 07:57:56;;;;;;;;;32.00;29.75;;;;;-143.90;100.00;75496.81;4971031;28;102324;-72
2024/03/05 08:00:24;;;;;;;;;43.00;32.50;;;;;-143.90;100.00;75488.53;4969021;28;102502;-72
2024/03/05 08:02:54;;;;;;;;;45.50;36.00;;;;;-143.90;100.00;75498.88;4959663;28;102440;-71
2024/03/05 08:05:23;;;;;;;;;48.75;39.25;;;;;-143.90;100.00;75517.50;4965415;28;104139;-72
2024/03/05 08:07:56;;;;;;;;;45.00;34.00;;;;;-143.90;100.00;75511.28;4970354;28;102327;-72
2024/03/05 08:10:24;;;;;;;;;52.50;43.75;;;;;-143.90;100.00;75509.22;4967978;28;103861;-71
2024/03/05 08:12:55;;;;;;;;;48.50;40.00;;;;;-143.90;100.00;75494.75;4959755;28;102355;-71
2024/03/05 08:15:26;;;;;;;;;54.00;44.67;;;;;-143.90;100.00;75494.75;4966211;28;104059;-71
2024/03/05 08:17:55;;;;;;;;;52.25;41.75;;;;;-143.90;100.00;75488.53;4966213;28;102639;-72
2024/03/05 08:20:25;;;;;;;;;52.50;42.00;;;;;-143.90;100.00;75503.03;4967043;28;102261;-72
2024/03/05 08:22:54;;;;;;;;;44.50;36.25;;;;;-143.90;100.00;75490.63;4961690;28;102386;-72
2024/03/05 08:25:22;;;;;;;;;56.25;43.50;;;;;-143.90;100.00;75490.63;4968468;28;103640;-71
2024/03/05 08:27:52;;;;;;;;;50.50;38.50;;;;;-143.90;100.00;75488.53;4969024;28;102619;-72
2024/03/05 08:30:24;;;;;;;;;50.00;39.00;;;;;-143.90;100.00;75484.41;4968531;28;103160;-73
2024/03/05 08:32:52;;;;;;;;;46.50;38.25;;;;;-143.90;100.00;75453.41;4958981;28;102500;-72
2024/03/05 08:35:20;;;;;;;;;57.50;43.75;;;;;-143.90;100.00;75461.66;4963914;27;104368;-72
2024/03/05 08:37:48;;;;;;;;;43.75;36.00;;;;;-143.90;100.00;75449.25;4963746;28;102251;-71
2024/03/05 08:40:17;;;;;;;;;53.50;39.25;;;;;-143.90;100.00;75445.13;4963262;28;102343;-70
2024/03/05 08:42:45;;;;;;;;;43.25;36.50;;;;;-143.90;100.00;75445.13;4960503;28;102008;-72
2024/03/05 08:45:19;;;;;;;;;39.50;33.50;;;;;-143.90;100.00;75422.38;4980041;28;104211;-72
2024/03/05 08:47:48;;;;;;;;;39.50;32.75;;;;;-143.90;100.00;75399.63;4967542;28;102313;-71
2024/03/05 08:50:15;;;;;;;;;30.75;24.50;;;;;-143.90;100.00;75370.69;4969212;28;101925;-72
2024/03/05 08:52:42;;;;;;;;;49.75;40.75;;;;;-143.90;100.00;75424.44;4957791;28;102984;-71
2024/03/05 08:55:10;;;;;;;;;52.75;38.00;;;;;-143.90;100.00;75389.31;4964000;28;103975;-71
2024/03/05 08:57:37;;;;;;;;;36.50;33.50;;;;;-143.90;100.00;75358.28;4965604;28;103702;-72
2024/03/05 09:00:06;;;;;;;;;28.75;26.00;;;;;-143.90;100.00;75337.63;4964680;28;102336;-72
2024/03/05 09:02:52;;;;;;;;;35.75;28.00;;;;;-143.90;100.00;75339.69;4951690;28;103071;-72
2024/03/05 09:05:19;;;;;;;;;32.25;29.25;;;;;-143.90;100.00;75331.41;4963570;28;104037;-72
2024/03/05 09:07:46;;;;;;;;;25.25;22.25;;;;;-143.90;100.00;75341.75;4964318;28;102689;-72
2024/03/05 09:10:17;;;;;;;;;24.25;21.25;;;;;-143.90;100.00;75335.53;4963740;28;102831;-71
2024/03/05 09:12:44;;;;;;;;;34.00;28.75;;;;;-143.90;100.00;75341.75;4954885;28;102344;-71
2024/03/05 09:15:12;;;;;;;;;30.25;25.00;;;;;-143.90;100.00;75329.34;4963991;28;103928;-71
2024/03/05 09:17:38;;;;;;;;;46.75;33.25;;;;;-143.90;100.00;75343.81;4969419;28;102506;-71
2024/03/05 09:20:15;;;;;;;;;38.25;31.50;;;;;-143.90;100.00;75354.16;4965738;28;102406;-72
2024/03/05 09:22:44;;;;;;;;;30.00;26.00;;;;;-143.90;100.00;75337.63;4955004;28;102021;-71
2024/03/05 09:25:16;;;;;;;;;31.25;27.25;;;;;-143.90;100.00;75345.88;4958545;28;108847;-71
2024/03/05 09:27:44;;;;;;;;;52.75;39.50;;;;;-143.90;100.00;75366.56;4965273;28;102417;-71
2024/03/05 09:30:14;;;;;;;;;37.50;33.50;;;;;-143.90;100.00;75343.81;4963535;28;102536;-71
2024/03/05 09:32:43;;;;;;;;;40.75;30.25;;;;;-143.90;100.00;75354.16;4953787;28;102710;-71
2024/03/05 09:35:12;;;;;;;;;39.50;30.00;;;;;-143.90;100.00;75329.34;4961778;28;108771;-71
2024/03/05 09:37:41;;;;;;;;;38.50;32.50;;;;;-143.90;100.00;75329.34;4965711;28;102390;-71
2024/03/05 09:40:16;;;;;;;;;37.00;30.75;;;;;-143.90;100.00;75337.63;4962460;28;102163;-71
2024/03/05 09:42:45;;;;;;;;;43.75;36.00;;;;;-143.90;100.00;75360.34;4949504;28;107924;-71
2024/03/05 09:45:16;;;;;;;;;49.50;37.50;;;;;-143.90;100.00;75383.09;4958143;28;104822;-71
2024/03/05 09:47:46;;;;;;;;;48.00;35.75;;;;;-143.90;100.00;75397.56;4956173;28;107982;-71
2024/03/05 09:50:16;;;;;;;;;38.25;32.50;;;;;-143.90;100.00;75403.78;4964146;28;102359;-71
2024/03/05 09:52:46;;;;;;;;;39.00;31.00;;;;;-143.90;100.00;75420.31;4953455;28;102195;-71
2024/03/05 09:55:15;;;;;;;;;33.00;29.75;;;;;-143.90;100.00;75424.44;4959037;28;108702;-71
2024/03/05 09:57:47;;;;;;;;;35.50;32.00;;;;;-143.90;100.00;75449.25;4963833;28;104697;-71
2024/03/05 10:00:17;;;;;;;;;44.50;34.00;;;;;-143.90;100.00;75436.84;4964014;28;102404;-71
2024/03/05 10:02:52;;;;;;;;;48.50;35.00;;;;;-143.90;100.00;75449.25;4953148;28;102457;-72
2024/03/05 10:05:20;;;;;;;;;50.25;36.50;;;;;-143.90;100.00;75490.63;4963585;28;103744;-72
2024/03/05 10:07:47;;;;;;;;;46.25;35.25;;;;;-143.90;100.00;75496.81;4963077;28;103364;-72
2024/03/05 10:10:19;;;;;;;;;46.25;36.50;;;;;-143.90;100.00;75511.28;4962786;27;102851;-71
2024/03/05 10:12:46;;;;;;;;;43.00;36.75;;;;;-143.90;100.00;75536.09;4956643;28;102359;-73
2024/03/05 10:15:17;;;;;;;;;40.75;36.50;;;;;-143.90;100.00;75536.09;4965566;28;103837;-70
2024/03/05 10:17:45;;;;;;;;;46.50;36.50;;;;;-143.90;100.00;75546.44;4965955;27;105551;-72
2024/03/05 10:20:31;;;;;;;;;38.50;35.00;;;;;-143.90;100.00;75552.63;4956237;28;102321;-72
2024/03/05 10:23:01;;;;;;;;;41.75;36.00;;;;;-143.90;100.00;75546.44;4961885;28;102268;-72
2024/03/05 10:25:32;;;;;;;;;52.25;40.00;;;;;-143.90;100.00;75534.03;4960587;28;104095;-72
2024/03/05 10:28:03;;;;;;;;;43.50;32.00;;;;;-143.90;100.00;75519.56;4979129;28;102506;-72
2024/03/05 10:30:32;;;;;;;;;42.25;33.25;;;;;-143.90;100.00;75515.41;4959198;28;104099;-72
2024/03/05 10:33:02;;;;;;;;;37.75;33.25;;;;;-143.90;100.00;75496.81;4965378;28;102397;-72
2024/03/05 10:35:31;;;;;;;;;37.50;35.50;;;;;-143.90;100.00;75511.28;4962013;28;103768;-72
2024/03/05 10:38:05;;;;;;;;;38.75;33.75;;;;;-143.90;100.00;75511.28;4963232;28;102515;-72
2024/03/05 10:40:34;;;;;;;;;36.00;32.50;;;;;-143.90;100.00;75511.28;4956183;28;102098;-72
2024/03/05 10:43:04;;;;;;;;;47.00;36.00;;;;;-143.90;100.00;75515.41;4965713;28;102041;-72
2024/03/05 10:45:37;;;;;;;;;44.00;36.75;;;;;-143.90;100.00;75517.50;4963369;28;103986;-71
2024/03/05 10:48:07;;;;;;;;;37.50;33.50;;;;;-143.90;100.00;75490.63;4963779;28;104412;-72
2024/03/05 10:50:39;;;;;;;;;40.50;33.00;;;;;-143.90;100.00;75469.94;4963329;28;102315;-71
2024/03/05 10:53:09;;;;;;;;;33.75;29.75;;;;;-143.90;100.00;75457.53;4961600;28;102002;-72
2024/03/05 10:55:37;;;;;;;;;46.75;33.75;;;;;-143.90;100.00;75461.66;4960516;28;104164;-72
2024/03/05 11:00:41;;;;;;;;;37.75;32.25;;;;;-143.90;100.00;75420.31;4955030;28;102217;-71